Time;durP1;ratioP1;P1;durP2;ratioP2;P2;SDS_P1;SDS_P2;PMS_P1;PMS_P2;Temp;Humidity;BMP_temperature;BMP_pressure;BME280_temperature;BME280_humidity;BME280_pressure;Samples;Min_cycle;Max_cycle;Signal;HPM_P1;HPM_P2
2021/04/28 00:00:23;;;;;;;11.63;8.07;;;9.30;48.50;;;;;;5090367;28;20738;-79
2021/04/28 00:02:50;;;;;;;9.70;6.78;;;9.20;48.50;;;;;;5090620;28;20672;-79
2021/04/28 00:05:17;;;;;;;7.80;7.00;;;9.10;48.20;;;;;;5090884;28;20203;-79
2021/04/28 00:07:44;;;;;;;9.68;6.57;;;9.20;48.40;;;;;;5090583;28;20210;-79
2021/04/28 00:10:13;;;;;;;8.70;6.75;;;9.20;48.10;;;;;;5090230;28;20245;-79
2021/04/28 00:12:41;;;;;;;13.85;7.85;;;9.00;47.80;;;;;;5090316;28;20698;-79
2021/04/28 00:15:10;;;;;;;8.25;7.03;;;9.20;48.40;;;;;;5090897;28;20229;-79
2021/04/28 00:17:36;;;;;;;7.68;6.88;;;9.20;48.30;;;;;;5090646;28;20606;-79
2021/04/28 00:20:06;;;;;;;11.65;7.38;;;9.20;48.20;;;;;;5090052;28;20190;-79
2021/04/28 00:22:33;;;;;;;7.53;6.65;;;9.00;48.50;;;;;;5090381;28;20202;-79
2021/04/28 00:24:59;;;;;;;8.82;7.75;;;9.00;49.00;;;;;;5090199;28;20205;-78
2021/04/28 00:27:26;;;;;;;7.13;6.43;;;9.00;49.20;;;;;;5090441;28;20293;-79
2021/04/28 00:29:53;;;;;;;9.23;7.60;;;8.90;48.90;;;;;;5090174;28;20210;-79
2021/04/28 00:32:19;;;;;;;10.32;7.65;;;8.90;49.10;;;;;;5090696;28;20265;-78
2021/04/28 00:34:46;;;;;;;8.95;7.00;;;9.00;48.90;;;;;;5090901;28;20282;-79
2021/04/28 00:37:12;;;;;;;7.68;6.95;;;9.20;48.30;;;;;;5090517;28;20674;-79
2021/04/28 00:39:38;;;;;;;8.80;7.45;;;9.10;48.20;;;;;;5089323;28;20202;-79
2021/04/28 00:42:06;;;;;;;8.27;7.22;;;9.10;48.20;;;;;;5090840;28;20209;-79
2021/04/28 00:44:33;;;;;;;11.65;8.35;;;9.10;48.50;;;;;;5090331;28;20336;-79
2021/04/28 00:47:00;;;;;;;10.48;7.07;;;9.10;48.30;;;;;;5090396;28;20645;-79
2021/04/28 00:49:27;;;;;;;8.98;7.18;;;9.20;48.10;;;;;;5089456;28;20256;-79
2021/04/28 00:51:54;;;;;;;10.20;7.72;;;9.30;47.80;;;;;;5090210;28;20221;-79
2021/04/28 00:54:21;;;;;;;9.88;7.10;;;9.30;47.70;;;;;;5089677;28;20214;-79
2021/04/28 00:56:47;;;;;;;9.13;7.82;;;9.40;46.70;;;;;;5089220;28;20210;-79
2021/04/28 00:59:16;;;;;;;10.73;7.05;;;9.40;46.40;;;;;;5089644;28;20242;-79
2021/04/28 01:01:42;;;;;;;11.60;7.32;;;9.40;46.20;;;;;;5090094;28;20246;-79
2021/04/28 01:04:11;;;;;;;8.00;7.03;;;9.40;46.20;;;;;;5089418;28;20317;-79
2021/04/28 01:06:39;;;;;;;9.02;7.15;;;9.50;45.90;;;;;;5089807;28;20714;-79
2021/04/28 01:09:08;;;;;;;11.73;7.90;;;9.50;46.50;;;;;;5089446;28;20214;-79
2021/04/28 01:11:43;;;;;;;10.05;7.55;;;9.60;47.00;;;;;;5089694;28;20223;-79
2021/04/28 01:14:11;;;;;;;7.00;6.40;;;9.60;46.50;;;;;;5090205;28;20206;-79
2021/04/28 01:16:39;;;;;;;10.65;6.95;;;9.50;46.40;;;;;;5090233;28;20245;-78
2021/04/28 01:19:07;;;;;;;7.55;6.82;;;9.50;46.20;;;;;;5089134;28;20286;-79
2021/04/28 01:21:36;;;;;;;8.02;7.20;;;9.30;46.60;;;;;;5090134;28;20206;-79
2021/04/28 01:24:07;;;;;;;7.93;6.70;;;9.10;46.70;;;;;;5087081;28;20203;-79
2021/04/28 01:26:36;;;;;;;8.80;7.95;;;8.90;47.20;;;;;;5087185;28;20191;-78
2021/04/28 01:29:07;;;;;;;9.25;7.22;;;9.10;47.80;;;;;;5086678;28;20210;-79
2021/04/28 01:31:35;;;;;;;9.38;7.22;;;9.20;47.10;;;;;;5086614;28;20222;-79
2021/04/28 01:34:06;;;;;;;9.23;7.28;;;9.20;46.20;;;;;;5089890;28;20231;-79
2021/04/28 01:36:39;;;;;;;8.50;7.60;;;9.20;46.70;;;;;;5089877;28;20648;-78
2021/04/28 01:39:11;;;;;;;10.00;8.10;;;9.00;46.70;;;;;;5089070;28;20218;-79
2021/04/28 01:41:42;;;;;;;8.25;7.50;;;9.00;47.20;;;;;;5093464;28;20199;-79
2021/04/28 01:44:13;;;;;;;13.05;7.25;;;9.00;47.70;;;;;;5093286;28;20213;-79
2021/04/28 01:46:45;;;;;;;9.10;8.07;;;8.90;47.50;;;;;;5075362;28;20680;-78
2021/04/28 01:49:16;;;;;;;9.07;7.80;;;8.90;47.80;;;;;;5093059;28;20198;-78
2021/04/28 01:51:45;;;;;;;13.70;8.13;;;9.00;48.00;;;;;;5093321;28;20776;-78
2021/04/28 01:54:18;;;;;;;9.52;7.22;;;9.10;47.70;;;;;;5093124;28;20198;-79
2021/04/28 01:56:48;;;;;;;8.88;8.00;;;9.00;47.80;;;;;;5092151;28;20210;-79
2021/04/28 01:59:19;;;;;;;14.25;8.35;;;9.00;48.20;;;;;;5092852;28;20207;-79
2021/04/28 02:01:52;;;;;;;10.70;8.38;;;9.10;48.30;;;;;;5093217;28;20210;-79
2021/04/28 02:04:21;;;;;;;10.48;7.63;;;9.10;47.70;;;;;;5093300;28;20207;-79
2021/04/28 02:06:51;;;;;;;8.05;7.22;;;9.20;48.10;;;;;;5093051;28;20202;-78
2021/04/28 02:09:23;;;;;;;7.78;7.07;;;9.10;48.10;;;;;;5092406;28;20289;-79
2021/04/28 02:11:51;;;;;;;9.45;8.27;;;9.00;47.40;;;;;;5092786;28;20223;-78
2021/04/28 02:14:20;;;;;;;10.80;7.88;;;8.90;48.10;;;;;;5093090;28;20217;-79
2021/04/28 02:16:49;;;;;;;9.10;7.75;;;8.90;48.10;;;;;;5093381;28;20283;-78
2021/04/28 02:19:18;;;;;;;8.98;7.40;;;9.00;47.90;;;;;;5092140;28;20206;-78
2021/04/28 02:21:50;;;;;;;9.27;6.53;;;9.10;48.20;;;;;;5092456;28;20233;-78
2021/04/28 02:24:19;;;;;;;10.80;7.72;;;9.00;47.50;;;;;;5092943;28;20206;-79
2021/04/28 02:26:56;;;;;;;8.65;7.75;;;9.10;47.60;;;;;;5092752;28;20622;-79
2021/04/28 02:29:26;;;;;;;9.70;8.05;;;8.80;47.50;;;;;;5092011;28;20209;-78
2021/04/28 02:31:56;;;;;;;12.02;7.60;;;8.70;46.90;;;;;;5092605;28;20218;-78
2021/04/28 02:34:25;;;;;;;8.82;7.25;;;8.50;48.10;;;;;;5092932;28;20203;-79
2021/04/28 02:36:57;;;;;;;9.43;7.50;;;8.70;48.40;;;;;;5092523;28;20667;-79
2021/04/28 02:39:33;;;;;;;8.63;7.72;;;8.80;48.50;;;;;;5091882;28;20202;-79
2021/04/28 02:42:04;;;;;;;10.73;7.78;;;8.80;48.60;;;;;;5072221;28;20195;-78
2021/04/28 02:44:35;;;;;;;8.65;7.75;;;8.90;48.10;;;;;;5072036;28;20660;-79
2021/04/28 02:47:05;;;;;;;8.63;7.72;;;8.80;47.70;;;;;;5072601;28;20540;-79
2021/04/28 02:49:35;;;;;;;8.32;7.53;;;8.80;47.80;;;;;;5071838;28;20203;-79
2021/04/28 02:52:03;;;;;;;8.52;7.50;;;8.90;47.80;;;;;;5071166;28;20540;-78
2021/04/28 02:54:32;;;;;;;10.25;9.25;;;8.90;48.50;;;;;;5071865;28;20720;-79
2021/04/28 02:57:07;;;;;;;8.35;7.15;;;8.90;48.30;;;;;;5070681;28;20203;-79
2021/04/28 02:59:46;;;;;;;9.65;8.45;;;8.80;47.90;;;;;;5071444;28;20207;-78
2021/04/28 03:02:19;;;;;;;8.07;7.28;;;8.80;48.00;;;;;;5071582;28;20214;-79
2021/04/28 03:04:51;;;;;;;8.55;7.68;;;8.70;47.80;;;;;;5071783;28;20237;-79
2021/04/28 03:07:19;;;;;;;8.15;7.35;;;8.80;47.80;;;;;;5071785;28;20657;-79
2021/04/28 03:09:46;;;;;;;9.55;7.68;;;8.90;47.80;;;;;;5070415;28;20581;-79
2021/04/28 03:12:15;;;;;;;10.85;7.55;;;8.90;47.70;;;;;;5071987;28;20306;-79
2021/04/28 03:14:42;;;;;;;10.27;8.18;;;8.90;47.80;;;;;;5071859;28;20195;-79
2021/04/28 03:17:09;;;;;;;7.50;6.78;;;8.80;48.10;;;;;;5071612;28;20206;-79
2021/04/28 03:19:37;;;;;;;10.30;7.93;;;8.70;48.40;;;;;;5070808;28;20204;-78
2021/04/28 03:22:04;;;;;;;11.43;7.50;;;8.70;48.00;;;;;;5071101;28;20245;-79
2021/04/28 03:24:30;;;;;;;9.15;7.65;;;8.70;48.20;;;;;;5071339;28;20259;-79
2021/04/28 03:27:08;;;;;;;11.57;8.40;;;8.70;48.20;;;;;;5071205;28;20253;-79
2021/04/28 03:29:35;;;;;;;10.93;9.02;;;8.70;48.50;;;;;;5070621;28;20199;-79
2021/04/28 03:32:03;;;;;;;10.52;8.10;;;8.60;48.30;;;;;;5070923;28;20707;-79
2021/04/28 03:34:29;;;;;;;13.35;8.50;;;8.60;48.60;;;;;;5071546;28;20203;-78
2021/04/28 03:36:55;;;;;;;11.95;8.80;;;8.60;48.70;;;;;;5071312;28;20672;-78
2021/04/28 03:39:22;;;;;;;10.90;8.38;;;8.60;49.00;;;;;;5070429;28;20199;-79
2021/04/28 03:41:49;;;;;;;8.52;7.53;;;8.60;48.90;;;;;;5089747;28;20206;-79
2021/04/28 03:44:16;;;;;;;9.60;8.70;;;8.70;48.90;;;;;;5091201;28;20293;-79
2021/04/28 03:46:43;;;;;;;14.00;8.27;;;8.50;49.20;;;;;;5091021;28;20260;-79
2021/04/28 03:49:09;;;;;;;10.23;7.63;;;8.30;49.90;;;;;;5090393;28;20194;-79
2021/04/28 03:51:36;;;;;;;8.55;7.60;;;8.20;50.10;;;;;;5091135;28;20222;-79
2021/04/28 03:54:03;;;;;;;9.00;7.05;;;8.20;50.50;;;;;;5091271;28;20251;-79
2021/04/28 03:56:29;;;;;;;10.98;8.40;;;8.00;50.60;;;;;;5090230;28;20199;-79
2021/04/28 03:58:56;;;;;;;14.02;8.88;;;7.80;50.70;;;;;;5090427;28;20210;-79
2021/04/28 04:01:22;;;;;;;11.55;8.65;;;8.10;50.70;;;;;;5090888;28;20206;-79
2021/04/28 04:03:50;;;;;;;9.25;8.27;;;8.20;50.40;;;;;;5090473;28;20213;-79
2021/04/28 04:06:16;;;;;;;9.43;8.43;;;8.30;50.30;;;;;;5072452;28;20214;-79
2021/04/28 04:08:43;;;;;;;9.02;8.10;;;8.30;49.80;;;;;;5090361;28;20238;-79
2021/04/28 04:11:09;;;;;;;13.32;8.70;;;8.40;50.00;;;;;;5091007;28;20248;-79
2021/04/28 04:13:35;;;;;;;11.15;8.20;;;8.30;50.00;;;;;;5090599;28;20447;-79
2021/04/28 04:16:02;;;;;;;10.05;8.77;;;8.40;50.00;;;;;;5090688;28;20289;-79
2021/04/28 04:18:28;;;;;;;8.98;8.18;;;8.20;50.00;;;;;;5090294;28;20221;-79
2021/04/28 04:20:55;;;;;;;10.88;7.97;;;8.10;50.80;;;;;;5090945;28;20272;-79
2021/04/28 04:23:23;;;;;;;10.95;9.00;;;8.10;51.20;;;;;;5090932;28;20202;-79
2021/04/28 04:25:50;;;;;;;12.73;8.23;;;8.20;51.00;;;;;;5090353;28;20667;-79
2021/04/28 04:28:17;;;;;;;8.50;7.68;;;8.20;51.00;;;;;;5090879;28;20202;-79
2021/04/28 04:30:43;;;;;;;13.00;8.40;;;8.20;51.10;;;;;;5089840;28;20207;-79
2021/04/28 04:33:12;;;;;;;9.60;7.70;;;8.10;51.10;;;;;;5090311;28;20238;-79
2021/04/28 04:35:38;;;;;;;12.13;8.68;;;8.20;51.10;;;;;;5090671;28;20217;-78
2021/04/28 04:38:05;;;;;;;9.20;8.30;;;8.20;50.60;;;;;;5090574;28;20236;-79
2021/04/28 04:40:32;;;;;;;10.02;8.93;;;8.10;51.20;;;;;;5089654;28;20215;-79
2021/04/28 04:42:58;;;;;;;9.38;7.88;;;8.10;51.30;;;;;;5090534;28;20226;-78
2021/04/28 04:45:25;;;;;;;11.52;8.50;;;8.10;51.50;;;;;;5090242;28;20560;-79
2021/04/28 04:47:51;;;;;;;13.02;8.13;;;8.00;52.10;;;;;;5090354;28;20300;-79
2021/04/28 04:50:17;;;;;;;11.32;8.68;;;7.90;52.20;;;;;;5089812;28;20211;-79
2021/04/28 04:52:44;;;;;;;9.63;8.55;;;7.90;52.00;;;;;;5089982;28;20309;-79
2021/04/28 04:55:12;;;;;;;10.60;9.20;;;8.10;51.80;;;;;;5090255;28;20235;-79
2021/04/28 04:57:39;;;;;;;17.15;9.65;;;8.20;51.80;;;;;;5089078;28;20281;-79
2021/04/28 05:00:06;;;;;;;11.18;9.38;;;8.40;51.50;;;;;;5089179;28;20600;-79
2021/04/28 05:02:33;;;;;;;16.48;9.32;;;8.40;51.60;;;;;;5089670;28;20305;-78
2021/04/28 05:04:59;;;;;;;15.68;9.07;;;8.40;51.30;;;;;;5090344;28;20210;-78
2021/04/28 05:07:26;;;;;;;16.50;11.18;;;8.50;51.60;;;;;;5090240;28;20253;-78
2021/04/28 05:09:52;;;;;;;12.13;9.90;;;8.60;51.60;;;;;;5071185;28;20202;-78
2021/04/28 05:12:19;;;;;;;9.90;8.93;;;8.80;51.80;;;;;;5090106;28;20718;-78
2021/04/28 05:14:46;;;;;;;11.98;8.07;;;8.90;51.00;;;;;;5090564;28;20213;-79
2021/04/28 05:17:13;;;;;;;9.05;8.10;;;9.10;50.50;;;;;;5094154;28;20206;-80
2021/04/28 05:19:39;;;;;;;15.90;10.00;;;9.20;49.40;;;;;;5093821;28;20344;-80
2021/04/28 05:22:05;;;;;;;11.07;9.85;;;9.30;49.10;;;;;;5094126;28;20214;-80
2021/04/28 05:24:32;;;;;;;10.70;8.57;;;9.40;49.00;;;;;;5094150;28;20210;-80
2021/04/28 05:26:58;;;;;;;10.43;8.90;;;9.60;49.00;;;;;;5093748;28;20214;-80
2021/04/28 05:29:25;;;;;;;16.63;8.73;;;9.70;48.50;;;;;;5093406;28;20202;-81
2021/04/28 05:31:53;;;;;;;13.68;7.78;;;9.70;48.40;;;;;;5092891;28;20198;-79
2021/04/28 05:34:19;;;;;;;13.02;8.90;;;9.80;48.50;;;;;;5091665;28;20207;-80
2021/04/28 05:36:45;;;;;;;13.63;9.20;;;10.00;47.60;;;;;;5094245;28;20225;-80
2021/04/28 05:39:12;;;;;;;12.30;9.38;;;10.10;47.40;;;;;;5093208;28;20234;-80
2021/04/28 05:41:39;;;;;;;11.18;9.80;;;10.20;47.30;;;;;;5093084;28;20297;-80
2021/04/28 05:44:06;;;;;;;10.73;9.63;;;10.30;47.40;;;;;;5093847;28;20293;-80
2021/04/28 05:46:33;;;;;;;10.40;8.55;;;10.30;47.20;;;;;;5093625;28;20203;-80
2021/04/28 05:49:00;;;;;;;12.13;9.70;;;10.30;47.20;;;;;;5093121;28;20718;-79
2021/04/28 05:51:26;;;;;;;11.48;9.18;;;10.50;47.40;;;;;;5093736;28;20226;-80
2021/04/28 05:53:52;;;;;;;16.65;9.50;;;10.60;47.20;;;;;;5093429;28;20213;-79
2021/04/28 05:56:19;;;;;;;15.35;9.25;;;10.70;47.30;;;;;;5092300;28;20195;-79
2021/04/28 05:58:45;;;;;;;11.63;9.48;;;10.70;47.10;;;;;;5111689;28;20202;-80
2021/04/28 06:01:12;;;;;;;10.98;9.70;;;10.90;47.10;;;;;;5114140;28;20205;-80
2021/04/28 06:03:39;;;;;;;13.25;9.30;;;11.10;47.40;;;;;;5113849;28;20227;-80
2021/04/28 06:06:06;;;;;;;15.55;10.15;;;11.10;46.90;;;;;;5114254;28;20202;-80
2021/04/28 06:08:32;;;;;;;9.68;8.68;;;11.10;46.70;;;;;;5112842;28;20205;-79
2021/04/28 06:10:59;;;;;;;10.95;9.85;;;11.10;46.70;;;;;;5113334;28;20213;-80
2021/04/28 06:13:25;;;;;;;14.60;10.02;;;11.20;47.10;;;;;;5113873;28;20209;-80
2021/04/28 06:15:52;;;;;;;13.88;9.45;;;11.30;46.80;;;;;;5113698;28;20237;-80
2021/04/28 06:18:18;;;;;;;15.48;9.30;;;11.50;46.80;;;;;;5113831;28;20292;-80
2021/04/28 06:20:45;;;;;;;10.25;9.07;;;11.50;46.60;;;;;;5113499;28;20202;-80
2021/04/28 06:23:12;;;;;;;16.23;11.60;;;11.60;46.50;;;;;;5113394;28;20611;-80
2021/04/28 06:25:39;;;;;;;15.27;9.27;;;11.80;46.30;;;;;;5113061;28;20201;-80
2021/04/28 06:28:07;;;;;;;12.95;10.25;;;11.90;46.10;;;;;;5113678;28;20202;-80
2021/04/28 06:30:34;;;;;;;13.82;10.65;;;11.90;46.00;;;;;;5113182;28;20296;-80
2021/04/28 06:33:00;;;;;;;12.43;9.93;;;12.00;45.40;;;;;;5113454;28;20198;-80
2021/04/28 06:35:26;;;;;;;12.93;9.40;;;12.00;45.20;;;;;;5113394;28;20205;-80
2021/04/28 06:37:54;;;;;;;12.65;10.65;;;12.10;45.30;;;;;;5113055;28;20216;-80
2021/04/28 06:40:22;;;;;;;13.02;9.80;;;12.30;45.50;;;;;;5106500;28;20203;-81
2021/04/28 06:42:49;;;;;;;13.15;11.18;;;12.40;44.70;;;;;;5092897;28;20313;-81
2021/04/28 06:45:16;;;;;;;12.05;10.57;;;12.50;44.30;;;;;;5092802;28;20201;-81
2021/04/28 06:47:42;;;;;;;11.23;9.88;;;12.70;44.60;;;;;;5092785;28;20207;-80
2021/04/28 06:50:10;;;;;;;13.57;10.70;;;12.80;45.00;;;;;;5092312;28;20217;-80
2021/04/28 06:52:36;;;;;;;14.20;10.45;;;12.90;44.50;;;;;;5092327;28;20209;-80
2021/04/28 06:55:05;;;;;;;15.15;10.88;;;12.90;44.80;;;;;;5092586;28;20198;-80
2021/04/28 06:57:31;;;;;;;11.83;10.07;;;13.00;44.00;;;;;;5092553;28;20242;-80
2021/04/28 06:59:58;;;;;;;15.77;10.20;;;13.00;44.10;;;;;;5092241;28;20632;-80
2021/04/28 07:02:24;;;;;;;11.80;9.80;;;13.10;43.90;;;;;;5092269;28;20652;-80
2021/04/28 07:04:51;;;;;;;15.17;11.47;;;13.20;44.60;;;;;;5092476;28;20612;-80
2021/04/28 07:07:17;;;;;;;14.03;9.77;;;13.20;44.10;;;;;;5092027;28;20616;-80
2021/04/28 07:09:44;;;;;;;13.00;9.13;;;13.40;43.90;;;;;;5091939;28;20616;-80
2021/04/28 07:12:11;;;;;;;11.50;9.90;;;13.50;44.50;;;;;;5092399;28;20742;-80
2021/04/28 07:14:38;;;;;;;13.40;10.80;;;13.70;44.40;;;;;;5092245;28;20677;-80
2021/04/28 07:17:04;;;;;;;14.20;12.03;;;13.70;44.00;;;;;;5092629;28;20681;-80
2021/04/28 07:19:30;;;;;;;16.93;11.50;;;13.90;43.90;;;;;;5091536;28;20604;-80
2021/04/28 07:21:57;;;;;;;13.83;11.23;;;14.00;43.80;;;;;;5092085;28;20644;-81
2021/04/28 07:24:24;;;;;;;19.50;10.77;;;14.10;43.50;;;;;;5091868;28;21174;-80
2021/04/28 07:26:52;;;;;;;20.03;11.10;;;14.10;43.40;;;;;;5092186;28;20624;-80
2021/04/28 07:29:19;;;;;;;16.47;10.80;;;14.30;44.20;;;;;;5091922;28;20642;-80
2021/04/28 07:31:46;;;;;;;19.00;11.40;;;14.50;43.50;;;;;;5091913;28;20616;-81
2021/04/28 07:34:13;;;;;;;15.53;10.83;;;14.70;43.80;;;;;;5091643;28;20616;-81
2021/04/28 07:36:39;;;;;;;17.27;10.67;;;14.80;43.70;;;;;;5092176;28;20616;-80
2021/04/28 07:39:07;;;;;;;18.47;11.13;;;15.00;43.60;;;;;;5090774;28;21201;-80
2021/04/28 07:41:33;;;;;;;13.10;10.77;;;15.10;43.30;;;;;;5091540;28;21116;-81
2021/04/28 07:44:00;;;;;;;13.90;10.40;;;15.20;42.90;;;;;;5091571;28;20620;-81
2021/04/28 07:46:27;;;;;;;13.53;10.17;;;15.30;43.10;;;;;;5091602;28;20750;-80
2021/04/28 07:48:54;;;;;;;13.60;11.03;;;15.20;42.40;;;;;;5091050;28;20647;-80
2021/04/28 07:51:20;;;;;;;15.37;12.60;;;15.40;43.40;;;;;;5091571;28;20674;-80
2021/04/28 07:53:47;;;;;;;15.77;10.63;;;15.60;42.80;;;;;;5091614;28;20616;-81
2021/04/28 07:56:14;;;;;;;12.47;10.57;;;15.80;42.80;;;;;;5091444;28;21161;-81
2021/04/28 07:58:40;;;;;;;12.90;10.50;;;15.80;43.00;;;;;;5091441;28;20951;-80
2021/04/28 08:01:07;;;;;;;14.23;10.50;;;16.00;42.60;;;;;;5091179;28;20639;-81
2021/04/28 08:03:34;;;;;;;11.73;10.50;;;16.10;42.30;;;;;;5090221;28;21052;-81
2021/04/28 08:06:00;;;;;;;13.10;11.10;;;16.20;42.30;;;;;;5090690;28;20620;-81
2021/04/28 08:08:27;;;;;;;13.60;11.07;;;16.30;42.20;;;;;;5090556;28;20628;-81
2021/04/28 08:10:53;;;;;;;15.37;10.63;;;16.50;42.20;;;;;;5090358;28;20626;-81
2021/04/28 08:13:20;;;;;;;12.40;10.23;;;16.50;41.40;;;;;;5090319;28;20616;-81
2021/04/28 08:15:47;;;;;;;15.90;11.13;;;16.70;41.70;;;;;;5090127;28;20634;-81
2021/04/28 08:18:14;;;;;;;14.87;10.43;;;16.80;41.40;;;;;;5090146;28;20670;-81
2021/04/28 08:20:41;;;;;;;16.50;10.70;;;16.90;41.60;;;;;;5090230;28;20617;-80
2021/04/28 08:23:08;;;;;;;16.03;10.67;;;17.10;41.30;;;;;;5090211;28;21102;-81
2021/04/28 08:25:34;;;;;;;12.37;10.40;;;17.20;41.40;;;;;;5090208;28;20606;-81
2021/04/28 08:28:01;;;;;;;12.53;10.57;;;17.30;42.20;;;;;;5090137;28;20977;-81
2021/04/28 08:30:29;;;;;;;13.03;10.50;;;17.40;41.20;;;;;;5089723;28;20623;-81
2021/04/28 08:32:56;;;;;;;11.90;10.20;;;17.50;41.30;;;;;;5090102;28;20616;-81
2021/04/28 08:35:26;;;;;;;13.03;10.50;;;17.60;41.70;;;;;;5090195;28;20618;-81
2021/04/28 08:37:54;;;;;;;16.80;11.40;;;17.60;41.50;;;;;;5090340;28;20600;-81
2021/04/28 08:40:21;;;;;;;10.67;9.13;;;17.60;40.40;;;;;;5089561;28;20619;-82
2021/04/28 08:42:48;;;;;;;10.17;9.10;;;17.90;40.50;;;;;;5090240;28;20640;-81
2021/04/28 08:45:16;;;;;;;12.60;9.97;;;18.10;40.40;;;;;;5089800;28;20699;-81
2021/04/28 08:47:43;;;;;;;12.47;11.03;;;18.00;39.80;;;;;;5090167;28;20624;-81
2021/04/28 08:50:11;;;;;;;11.80;10.20;;;18.20;40.80;;;;;;5088649;28;20612;-80
2021/04/28 08:52:39;;;;;;;13.40;10.43;;;18.40;40.50;;;;;;5089690;28;20624;-81
2021/04/28 08:55:09;;;;;;;14.20;9.77;;;18.50;40.30;;;;;;5089815;28;20621;-81
2021/04/28 08:57:39;;;;;;;13.50;10.83;;;18.50;40.20;;;;;;5088898;28;20658;-81
2021/04/28 09:00:08;;;;;;;14.20;9.90;;;18.60;40.30;;;;;;5089488;28;21181;-82
2021/04/28 09:02:35;;;;;;;15.13;10.90;;;18.70;40.50;;;;;;5065935;28;681532;-81
2021/04/28 09:05:03;;;;;;;16.70;11.10;;;18.90;40.60;;;;;;5090377;28;21070;-81
2021/04/28 09:07:30;;;;;;;13.87;11.10;;;19.00;40.10;;;;;;5090173;28;21199;-81
2021/04/28 09:10:01;;;;;;;11.90;10.50;;;19.10;40.50;;;;;;5090059;28;20611;-81
2021/04/28 09:12:29;;;;;;;15.60;10.37;;;19.30;40.80;;;;;;5090681;28;20620;-82
2021/04/28 09:14:57;;;;;;;13.63;10.30;;;19.30;40.10;;;;;;5090422;28;21189;-81
2021/04/28 09:17:24;;;;;;;13.00;10.63;;;19.30;39.20;;;;;;5093519;28;21243;-81
2021/04/28 09:20:15;;;;;;;15.80;12.13;;;19.20;39.10;;;;;;5110651;28;20603;-82
2021/04/28 09:22:49;;;;;;;10.80;9.70;;;19.20;39.50;;;;;;5109812;28;21424;-82
2021/04/28 09:25:33;;;;;;;12.40;9.67;;;19.30;39.00;;;;;;5110906;28;20602;-81
2021/04/28 09:28:25;;;;;;;15.97;10.87;;;19.30;39.20;;;;;;5102506;28;20604;-82
2021/04/28 09:31:11;;;;;;;14.47;10.27;;;19.30;38.60;;;;;;5089502;28;20639;-82
2021/04/28 09:33:52;;;;;;;13.93;10.67;;;19.30;37.80;;;;;;5088343;28;20604;-81
2021/04/28 09:36:26;;;;;;;11.80;10.00;;;19.50;38.00;;;;;;5089717;28;21228;-82
2021/04/28 09:38:54;;;;;;;15.03;10.00;;;19.80;37.60;;;;;;5090017;28;20616;-82
2021/04/28 09:41:38;;;;;;;12.47;9.67;;;19.70;37.30;;;;;;5089468;28;21005;-82
2021/04/28 09:44:27;;;;;;;14.87;10.50;;;19.90;37.20;;;;;;5089346;28;20663;-82
2021/04/28 09:46:59;;;;;;;11.07;9.03;;;19.80;37.00;;;;;;5090235;28;20608;-83
2021/04/28 09:49:44;;;;;;;11.07;9.20;;;19.90;37.90;;;;;;5087579;28;20620;-83
2021/04/28 09:52:11;;;;;;;13.77;10.60;;;20.20;36.80;;;;;;5089602;28;20688;-83
2021/04/28 09:54:38;;;;;;;11.37;9.90;;;20.30;36.80;;;;;;5097231;28;20620;-82
2021/04/28 09:57:05;;;;;;;10.70;9.17;;;20.40;36.20;;;;;;5099137;28;20969;-82
2021/04/28 09:59:43;;;;;;;14.20;10.00;;;20.30;36.50;;;;;;5104430;28;20673;-81
2021/04/28 10:02:12;;;;;;;11.00;9.90;;;20.60;36.50;;;;;;5095669;28;21211;-82
2021/04/28 10:04:39;;;;;;;10.50;9.40;;;20.60;36.10;;;;;;5106291;28;21195;-82
2021/04/28 10:07:08;;;;;;;12.00;9.67;;;20.70;35.50;;;;;;5103962;28;20620;-82
2021/04/28 10:09:36;;;;;;;12.47;9.33;;;20.80;35.50;;;;;;5098084;28;20710;-82
2021/04/28 10:12:04;;;;;;;11.27;10.07;;;20.80;35.00;;;;;;5109721;28;20705;-81
2021/04/28 10:14:32;;;;;;;10.73;9.23;;;21.00;35.50;;;;;;5099164;28;20696;-82
2021/04/28 10:17:03;;;;;;;11.80;9.60;;;21.30;35.40;;;;;;5103157;28;21417;-82
2021/04/28 10:19:30;;;;;;;7.77;7.03;;;21.20;35.00;;;;;;5107214;28;21564;-82
2021/04/28 10:21:59;;;;;;;8.60;7.27;;;21.40;34.40;;;;;;5093101;28;20636;-81
2021/04/28 10:24:28;;;;;;;12.10;7.70;;;21.50;33.40;;;;;;5092710;28;20729;-81
2021/04/28 10:26:56;;;;;;;10.30;8.63;;;21.60;33.00;;;;;;5092772;28;20617;-83
2021/04/28 10:29:23;;;;;;;12.60;8.97;;;21.70;32.20;;;;;;5107420;28;20662;-82
2021/04/28 10:31:52;;;;;;;11.97;9.70;;;21.60;32.10;;;;;;5094261;28;21051;-81
2021/04/28 10:34:27;;;;;;;8.67;7.67;;;21.40;34.30;;;;;;5092274;28;20623;-82
2021/04/28 10:36:56;;;;;;;8.97;8.07;;;21.80;33.90;;;;;;5093359;28;20727;-82
2021/04/28 10:39:23;;;;;;;10.97;7.80;;;21.90;32.80;;;;;;5109348;28;21174;-82
2021/04/28 10:41:52;;;;;;;9.20;8.10;;;22.10;32.50;;;;;;5093985;28;20663;-82
2021/04/28 10:44:44;;;;;;;10.03;7.70;;;22.30;32.30;;;;;;5096928;28;20624;-82
2021/04/28 10:47:21;;;;;;;10.17;9.03;;;22.40;31.60;;;;;;5099142;28;20625;-82
2021/04/28 10:50:05;;;;;;;8.93;8.10;;;22.30;32.00;;;;;;5101901;28;20631;-82
2021/04/28 10:52:34;;;;;;;11.20;8.37;;;22.40;31.30;;;;;;5093864;28;20670;-82
2021/04/28 10:55:01;;;;;;;10.70;7.50;;;22.60;32.30;;;;;;5078488;28;20626;-82
2021/04/28 10:57:35;;;;;;;8.83;7.93;;;22.80;31.90;;;;;;5109141;28;20651;-82
2021/04/28 11:00:26;;;;;;;8.27;7.47;;;23.00;30.90;;;;;;5098560;28;20651;-83
2021/04/28 11:02:55;;;;;;;9.67;8.67;;;23.20;31.00;;;;;;5092440;28;20651;-83
2021/04/28 11:05:26;;;;;;;9.50;8.13;;;23.00;30.20;;;;;;5092141;28;20616;-82
2021/04/28 11:07:55;;;;;;;9.50;8.13;;;23.20;30.80;;;;;;5092627;28;20667;-82
2021/04/28 11:10:32;;;;;;;9.67;8.13;;;23.30;31.00;;;;;;5091846;28;20616;-83
2021/04/28 11:13:06;;;;;;;9.40;8.03;;;23.30;30.70;;;;;;5090901;28;20669;-83
2021/04/28 11:15:48;;;;;;;9.03;6.87;;;23.40;30.90;;;;;;5092187;28;20956;-83
2021/04/28 11:18:27;;;;;;;9.17;7.40;;;23.70;30.30;;;;;;5092109;28;20661;-82
2021/04/28 11:21:23;;;;;;;7.20;6.50;;;23.80;30.00;;;;;;5092008;28;20594;-83
2021/04/28 11:24:08;;;;;;;7.60;6.90;;;23.80;29.10;;;;;;5089652;28;20710;-83
2021/04/28 11:26:36;;;;;;;9.17;6.83;;;24.20;29.00;;;;;;5091953;28;20626;-83
2021/04/28 11:29:04;;;;;;;5.53;4.60;;;24.20;27.90;;;;;;5091025;28;20675;-82
2021/04/28 11:31:43;;;;;;;7.70;5.17;;;24.50;28.60;;;;;;5094326;28;20972;-82
2021/04/28 11:34:34;;;;;;;4.90;4.43;;;25.00;27.30;;;;;;5091982;28;20633;-84
2021/04/28 11:37:03;;;;;;;7.43;5.40;;;25.60;27.00;;;;;;5092803;28;20608;-82
2021/04/28 11:39:38;;;;;;;8.33;5.77;;;26.20;26.80;;;;;;5088462;28;20628;-82
2021/04/28 11:42:09;;;;;;;4.33;3.93;;;27.00;27.60;;;;;;5088325;28;20616;-83
2021/04/28 11:44:37;;;;;;;4.10;3.80;;;27.80;26.20;;;;;;5093554;28;20727;-83
2021/04/28 11:47:10;;;;;;;4.40;4.00;;;28.50;25.80;;;;;;5108841;28;20621;-84
2021/04/28 11:49:41;;;;;;;5.87;4.27;;;29.30;25.90;;;;;;5091362;28;21180;-84
2021/04/28 11:52:08;;;;;;;3.93;3.63;;;30.00;25.00;;;;;;5091661;28;21007;-84
2021/04/28 11:54:36;;;;;;;5.17;3.90;;;30.80;24.10;;;;;;5096082;28;20655;-80
2021/04/28 11:57:03;;;;;;;7.83;4.20;;;31.30;23.50;;;;;;5092607;28;20620;-81
2021/04/28 11:59:35;;;;;;;3.97;3.57;;;32.40;23.30;;;;;;5101330;28;20628;-82
2021/04/28 12:02:02;;;;;;;6.00;3.63;;;32.90;22.20;;;;;;5070550;28;20673;-82
2021/04/28 12:04:31;;;;;;;4.90;4.50;;;33.40;21.70;;;;;;5081192;28;21221;-84
2021/04/28 12:06:59;;;;;;;4.00;3.70;;;35.30;21.50;;;;;;5070955;28;20627;-82
2021/04/28 12:09:47;;;;;;;6.00;4.07;;;37.70;21.00;;;;;;5088657;28;20656;-82
2021/04/28 12:12:19;;;;;;;5.07;4.68;;;38.00;20.60;;;;;;5089670;28;20733;-80
2021/04/28 12:14:49;;;;;;;5.20;4.70;;;37.20;19.90;;;;;;5107954;28;20870;-80
2021/04/28 12:17:21;;;;;;;3.67;3.47;;;33.60;22.20;;;;;;5079203;28;20618;-81
2021/04/28 12:19:50;;;;;;;3.87;3.67;;;35.60;22.20;;;;;;5091974;28;20632;-82
2021/04/28 12:22:17;;;;;;;4.00;3.70;;;38.40;20.80;;;;;;5110898;28;20603;-82
2021/04/28 12:24:47;;;;;;;4.40;4.00;;;41.10;19.50;;;;;;5099167;28;21078;-83
2021/04/28 12:27:19;;;;;;;4.43;4.13;;;42.20;19.30;;;;;;5097075;28;20619;-83
2021/04/28 12:29:49;;;;;;;5.50;3.23;;;42.80;18.10;;;;;;5094110;28;20615;-82
2021/04/28 12:32:17;;;;;;;3.93;3.73;;;43.90;18.30;;;;;;5110439;28;20646;-83
2021/04/28 12:34:46;;;;;;;4.03;3.73;;;44.60;18.40;;;;;;5106749;28;21093;-83
2021/04/28 12:37:16;;;;;;;4.37;3.97;;;45.00;18.20;;;;;;5070380;28;20577;-82
2021/04/28 12:39:58;;;;;;;4.22;3.95;;;45.20;18.30;;;;;;5087593;28;20222;-82
2021/04/28 12:42:28;;;;;;;4.17;3.87;;;46.10;17.80;;;;;;5090335;28;20205;-84
2021/04/28 12:44:55;;;;;;;3.67;3.42;;;45.50;18.10;;;;;;5095400;28;20284;-83
2021/04/28 12:47:29;;;;;;;4.47;4.18;;;45.80;17.70;;;;;;5103973;28;20190;-83
2021/04/28 12:50:04;;;;;;;4.03;3.73;;;45.60;18.00;;;;;;5096162;28;20204;-83
2021/04/28 12:52:33;;;;;;;5.43;5.03;;;43.60;17.70;;;;;;5093979;28;20293;-82